createdAt,value
2019-06-15T00:00:03.965Z,1099.14
2019-06-15T00:01:03.975Z,1099.33
2019-06-15T00:02:03.965Z,1099.62
2019-06-15T00:03:03.973Z,1099.98
2019-06-15T00:04:03.974Z,1100.15
2019-06-15T00:05:03.975Z,1100.38
2019-06-15T00:06:14.581Z,1100.41
2019-06-15T00:07:03.987Z,1100.54
2019-06-15T00:08:04.827Z,1100.46
2019-06-15T00:09:03.967Z,1100.55
2019-06-15T00:10:03.995Z,1100.51
2019-06-15T00:15:29.185Z,1100.69
2019-06-15T00:16:29.063Z,1100.85
2019-06-15T00:17:29.051Z,1100.86
2019-06-15T00:18:29.054Z,1100.81
2019-06-15T00:19:29.082Z,1100.73
2019-06-15T00:20:29.091Z,1100.96
2019-06-15T00:21:29.080Z,1100.83
2019-06-15T00:22:29.078Z,1100.76
2019-06-15T00:23:29.103Z,1100.66
2019-06-15T00:24:35.142Z,1100.84
2019-06-15T00:25:29.097Z,1100.64
2019-06-15T00:26:29.108Z,1100.53
2019-06-15T00:27:29.115Z,1100.51
2019-06-15T00:28:29.099Z,1100.48
2019-06-15T00:29:29.114Z,1100.79
2019-06-15T00:30:29.082Z,1100.83
2019-06-15T00:31:29.102Z,1100.88
2019-06-15T00:32:29.108Z,1101.03
2019-06-15T00:33:29.131Z,1101.15
2019-06-15T00:34:29.114Z,1101.23
2019-06-15T00:35:29.082Z,1101.51
2019-06-15T00:36:29.117Z,1101.92
2019-06-15T00:37:29.106Z,1102.16
2019-06-15T00:38:29.109Z,1102.35
2019-06-15T00:39:29.096Z,1102.59
2019-06-15T00:40:29.119Z,1102.96
2019-06-15T00:41:29.121Z,1103.23
2019-06-15T00:42:29.132Z,1103.5
2019-06-15T00:43:29.160Z,1103.59
2019-06-15T00:44:29.126Z,1103.38
2019-06-15T00:45:29.285Z,1103.4
2019-06-15T00:46:29.130Z,1103.28
2019-06-15T00:47:29.159Z,1103.3
2019-06-15T00:48:29.146Z,1103.54
2019-06-15T00:49:29.140Z,1103.42
2019-06-15T00:50:29.488Z,1103.48
2019-06-15T00:51:29.118Z,1103.57
2019-06-15T00:52:29.156Z,1103.52
2019-06-15T00:53:29.124Z,1103.55
2019-06-15T00:54:29.133Z,1103.49
2019-06-15T00:55:29.219Z,1103.58
2019-06-15T00:56:29.178Z,1103.41
2019-06-15T01:00:57.515Z,1103.69
2019-06-15T01:01:57.518Z,1103.78
2019-06-15T01:02:57.494Z,1103.83
2019-06-15T01:03:57.515Z,1103.9
2019-06-15T01:04:57.524Z,1104.1
2019-06-15T01:05:57.566Z,1104.05
2019-06-15T01:06:57.500Z,1104.13
2019-06-15T01:07:57.495Z,1104.03
2019-06-15T01:08:57.491Z,1104.1
2019-06-15T01:09:57.514Z,1104.21
2019-06-15T01:10:57.495Z,1103.94
2019-06-15T01:11:57.502Z,1103.88
2019-06-15T01:12:57.509Z,1103.78
2019-06-15T01:13:57.498Z,1103.73
2019-06-15T01:14:57.503Z,1103.71
2019-06-15T01:15:58.014Z,1103.6
2019-06-15T01:16:57.504Z,1103.56
2019-06-15T01:17:57.587Z,1103.29
2019-06-15T01:18:57.701Z,1103.16
2019-06-15T01:19:57.528Z,1102.93
2019-06-15T01:20:57.511Z,1102.84
2019-06-15T01:21:57.535Z,1102.78
2019-06-15T01:22:57.519Z,1102.66
2019-06-15T01:23:57.545Z,1102.72
2019-06-15T01:25:05.365Z,1102.76
2019-06-15T01:25:57.536Z,1102.84
2019-06-15T01:26:57.545Z,1102.91
2019-06-15T01:27:57.539Z,1102.88
2019-06-15T01:28:57.521Z,1102.83
2019-06-15T01:29:57.543Z,1102.83
2019-06-15T01:30:57.530Z,1103.09
2019-06-15T01:31:57.555Z,1103.18
2019-06-15T01:32:57.546Z,1103.36
2019-06-15T01:33:57.552Z,1103.37
2019-06-15T01:34:57.563Z,1103.32
2019-06-15T01:35:57.550Z,1103.36
2019-06-15T01:36:57.549Z,1103.38
2019-06-15T01:37:57.542Z,1103.53
2019-06-15T01:38:57.566Z,1103.63
2019-06-15T01:39:57.573Z,1103.81
2019-06-15T01:40:57.564Z,1103.99
2019-06-15T01:41:57.548Z,1104.22
2019-06-15T01:42:57.551Z,1104.36
2019-06-15T01:43:57.574Z,1104.37
2019-06-15T01:44:57.580Z,1104.5
2019-06-15T01:45:57.568Z,1104.69
2019-06-15T01:46:57.558Z,1104.84
2019-06-15T01:47:57.567Z,1105.37
2019-06-15T01:48:57.588Z,1105.95
2019-06-15T01:49:57.600Z,1106.63
2019-06-15T01:50:57.581Z,1107.3
2019-06-15T01:51:57.567Z,1107.98
2019-06-15T01:52:57.622Z,1108.33
2019-06-15T01:53:57.620Z,1108.7
2019-06-15T01:54:57.575Z,1108.86
2019-06-15T01:55:57.596Z,1108.99
2019-06-15T01:56:57.586Z,1108.96
2019-06-15T01:57:57.596Z,1108.85
2019-06-15T01:58:57.599Z,1108.68
2019-06-15T01:59:57.582Z,1108.74
2019-06-15T02:00:57.604Z,1108.48
2019-06-15T02:01:57.599Z,1108.51
2019-06-15T02:02:57.600Z,1108.4
2019-06-15T02:03:57.610Z,1108.46
2019-06-15T02:04:57.619Z,1108.46
2019-06-15T02:05:57.598Z,1108.62
2019-06-15T02:06:57.653Z,1108.77
2019-06-15T02:07:57.609Z,1108.76
2019-06-15T02:08:57.621Z,1108.98
2019-06-15T02:09:57.631Z,1109.07
2019-06-15T02:10:57.614Z,1109.21
2019-06-15T02:11:57.634Z,1109.35
2019-06-15T02:12:57.606Z,1109.65
2019-06-15T02:13:57.617Z,1109.85
2019-06-15T02:14:57.654Z,1109.97
2019-06-15T02:15:57.614Z,1110.07
2019-06-15T02:16:57.653Z,1110.25
2019-06-15T02:17:57.629Z,1110.27
2019-06-15T02:18:57.637Z,1110.25
2019-06-15T02:19:57.654Z,1110.2
2019-06-15T02:20:57.645Z,1110.16
2019-06-15T02:21:57.699Z,1109.98
2019-06-15T02:22:57.641Z,1110.04
2019-06-15T02:23:57.669Z,1109.94
2019-06-15T02:24:58.011Z,1109.88
2019-06-15T02:25:57.638Z,1109.76
2019-06-15T02:26:57.653Z,1109.65
2019-06-15T02:27:57.629Z,1109.49
2019-06-15T02:28:57.644Z,1109.4
2019-06-15T02:29:57.642Z,1109.25
2019-06-15T02:30:57.658Z,1109.17
2019-06-15T02:31:57.635Z,1109.22
2019-06-15T02:32:57.649Z,1109.06
2019-06-15T02:33:57.655Z,1109.1
2019-06-15T02:34:57.663Z,1109.04
2019-06-15T02:35:57.648Z,1109.02
2019-06-15T02:36:57.668Z,1109.12
2019-06-15T02:37:57.656Z,1109.16
2019-06-15T02:38:57.662Z,1109.38
2019-06-15T02:39:57.657Z,1109.57
2019-06-15T02:40:57.653Z,1109.94
2019-06-15T02:41:57.670Z,1110.48
2019-06-15T02:42:57.672Z,1110.95
2019-06-15T02:43:57.679Z,1111.45
2019-06-15T02:44:57.663Z,1111.85
2019-06-15T02:45:57.688Z,1112.03
2019-06-15T02:46:57.689Z,1112.27
2019-06-15T02:47:57.673Z,1112.35
2019-06-15T02:48:57.683Z,1112.42
2019-06-15T02:49:57.690Z,1112.59
2019-06-15T02:50:57.802Z,1112.69
2019-06-15T02:51:57.688Z,1112.91
2019-06-15T02:56:26.154Z,1113.11
2019-06-15T02:57:26.158Z,1113.06
2019-06-15T02:58:26.106Z,1112.93
2019-06-15T02:59:26.277Z,1112.85
2019-06-15T03:00:26.123Z,1112.84
2019-06-15T03:01:26.159Z,1112.7
2019-06-15T03:02:26.160Z,1112.78
2019-06-15T03:03:26.121Z,1112.81
2019-06-15T03:04:26.160Z,1112.95
2019-06-15T03:05:26.156Z,1113.09
2019-06-15T03:06:26.138Z,1113.41
2019-06-15T03:07:26.145Z,1113.64
2019-06-15T03:08:26.141Z,1113.78
2019-06-15T03:09:26.142Z,1113.82
2019-06-15T03:10:26.149Z,1113.87
2019-06-15T03:11:26.175Z,1113.9
2019-06-15T03:12:26.158Z,1113.87
2019-06-15T03:13:26.164Z,1113.9
2019-06-15T03:14:26.165Z,1113.79
2019-06-15T03:15:26.212Z,1113.84
2019-06-15T03:16:26.179Z,1113.89
2019-06-15T03:17:26.176Z,1113.84
2019-06-15T03:18:26.190Z,1113.81
2019-06-15T03:19:26.141Z,1113.88
2019-06-15T03:20:26.167Z,1113.9
2019-06-15T03:21:26.185Z,1114.01
2019-06-15T03:22:26.180Z,1114.07
2019-06-15T03:23:26.179Z,1114.13
2019-06-15T03:24:26.172Z,1114.25
2019-06-15T03:25:26.195Z,1114.36
2019-06-15T03:26:26.145Z,1114.36
2019-06-15T03:27:26.187Z,1114.37
2019-06-15T03:28:26.192Z,1114.38
2019-06-15T03:29:26.344Z,1114.42
2019-06-15T03:30:26.462Z,1114.49
2019-06-15T03:31:26.189Z,1114.57
2019-06-15T03:32:26.188Z,1114.63
2019-06-15T03:33:26.166Z,1114.75
2019-06-15T03:34:26.181Z,1114.84
2019-06-15T03:35:26.194Z,1114.87
2019-06-15T03:36:26.184Z,1114.98
2019-06-15T03:37:26.212Z,1114.98
2019-06-15T03:38:26.223Z,1115.15
2019-06-15T03:39:26.187Z,1115.19
2019-06-15T03:40:26.254Z,1115.3
2019-06-15T03:41:26.224Z,1115.39
2019-06-15T03:42:26.248Z,1115.6
2019-06-15T03:43:26.192Z,1115.79
2019-06-15T03:44:26.217Z,1115.98
2019-06-15T03:45:26.183Z,1116.04
2019-06-15T03:46:26.206Z,1116.17
2019-06-15T03:47:26.191Z,1116.21
2019-06-15T03:48:26.230Z,1116.24
2019-06-15T03:49:26.234Z,1116.23
2019-06-15T03:50:26.265Z,1116.2
2019-06-15T03:51:26.248Z,1116.08
2019-06-15T03:52:26.225Z,1116.11
2019-06-15T03:53:26.228Z,1116.18
2019-06-15T03:54:26.208Z,1116.11
2019-06-15T03:55:26.234Z,1116.26
2019-06-15T03:56:26.210Z,1116.35
2019-06-15T03:57:26.209Z,1116.62
2019-06-15T03:58:26.220Z,1116.7
2019-06-15T03:59:26.552Z,1116.8
2019-06-15T04:00:26.236Z,1116.77
2019-06-15T04:01:26.252Z,1116.72
2019-06-15T04:02:26.254Z,1116.55
2019-06-15T04:03:26.256Z,1116.52
2019-06-15T04:04:26.297Z,1116.37
2019-06-15T04:05:26.280Z,1116.44
2019-06-15T04:06:26.250Z,1116.32
2019-06-15T04:07:26.254Z,1116.33
2019-06-15T04:08:26.245Z,1116.22
2019-06-15T04:09:26.227Z,1116.2
2019-06-15T04:10:26.237Z,1116.12
2019-06-15T04:11:26.237Z,1115.81
2019-06-15T04:12:26.248Z,1115.6
2019-06-15T04:13:26.271Z,1115.51
2019-06-15T04:14:26.279Z,1115.41
2019-06-15T04:15:26.260Z,1115.37
2019-06-15T04:16:26.233Z,1115.36
2019-06-15T04:17:26.253Z,1115.31
2019-06-15T04:18:26.249Z,1115.26
2019-06-15T04:19:26.274Z,1115.29
2019-06-15T04:20:26.253Z,1115.27
2019-06-15T04:21:26.264Z,1115.24
2019-06-15T04:22:26.267Z,1115.17
2019-06-15T04:23:26.273Z,1115.27
2019-06-15T04:24:26.265Z,1115.15
2019-06-15T04:25:26.829Z,1115.09
2019-06-15T04:26:35.509Z,1114.96
2019-06-15T04:27:26.277Z,1114.79
2019-06-15T04:28:26.272Z,1114.61
2019-06-15T04:29:26.294Z,1114.38
2019-06-15T04:30:26.300Z,1114.28
2019-06-15T04:31:26.332Z,1114.13
2019-06-15T04:32:26.274Z,1113.93
2019-06-15T04:33:26.298Z,1113.73
2019-06-15T04:34:26.613Z,1113.62
2019-06-15T04:35:26.296Z,1113.51
2019-06-15T04:36:26.305Z,1113.28
2019-06-15T04:37:26.291Z,1113.2
2019-06-15T04:38:26.298Z,1113.17
2019-06-15T04:39:26.287Z,1112.98
2019-06-15T04:40:26.269Z,1112.91
2019-06-15T04:41:26.314Z,1112.8
2019-06-15T04:42:26.325Z,1112.67
2019-06-15T04:43:26.301Z,1112.51
2019-06-15T04:44:26.287Z,1112.33
2019-06-15T04:45:26.314Z,1112.04
2019-06-15T04:46:26.316Z,1111.82
2019-06-15T04:47:26.333Z,1111.62
2019-06-15T04:48:26.304Z,1111.42
2019-06-15T04:49:26.308Z,1111.25
2019-06-15T04:50:26.314Z,1111.08
2019-06-15T04:51:26.307Z,1110.84
2019-06-15T04:52:26.316Z,1110.82
2019-06-15T04:53:26.312Z,1110.65
2019-06-15T04:54:26.315Z,1110.66
2019-06-15T04:55:26.345Z,1110.62
2019-06-15T04:56:26.314Z,1110.6
2019-06-15T04:57:26.320Z,1110.39
2019-06-15T04:58:26.428Z,1110.19
2019-06-15T04:59:26.350Z,1110.05
2019-06-15T05:00:26.346Z,1109.89
2019-06-15T05:01:26.308Z,1109.68
2019-06-15T05:02:27.351Z,1109.33
2019-06-15T05:03:26.353Z,1109.1
2019-06-15T05:04:26.328Z,1108.8
2019-06-15T05:05:26.333Z,1108.56
2019-06-15T05:06:26.661Z,1108.41
2019-06-15T05:07:26.405Z,1108.24
2019-06-15T05:08:26.341Z,1107.88
2019-06-15T05:09:26.338Z,1107.56
2019-06-15T05:10:26.346Z,1106.99
2019-06-15T05:11:26.372Z,1106.62
2019-06-15T05:12:26.358Z,1106.15
2019-06-15T05:13:26.340Z,1105.69
2019-06-15T05:14:26.351Z,1105.16
2019-06-15T05:15:26.377Z,1104.63
2019-06-15T05:16:26.401Z,1104.27
2019-06-15T05:17:26.368Z,1103.79
2019-06-15T05:18:26.348Z,1103.35
2019-06-15T05:19:26.423Z,1102.88
2019-06-15T05:20:26.446Z,1102.68
2019-06-15T05:21:26.409Z,1102.32
2019-06-15T05:22:26.422Z,1102.13
2019-06-15T05:23:26.382Z,1101.64
2019-06-15T05:24:26.394Z,1101.17
2019-06-15T05:25:26.394Z,1100.64
2019-06-15T05:26:26.417Z,1099.84
2019-06-15T05:27:26.393Z,1099.14
2019-06-15T05:28:26.402Z,1098.25
2019-06-15T05:29:26.426Z,1097.63
2019-06-15T05:30:26.762Z,1096.95
2019-06-15T05:31:26.397Z,1095.97
2019-06-15T05:32:26.385Z,1095.2
2019-06-15T05:33:26.414Z,1094.32
2019-06-15T05:34:26.408Z,1093.36
2019-06-15T05:35:26.403Z,1092.56
2019-06-15T05:36:26.376Z,1091.74
2019-06-15T05:37:26.377Z,1090.81
2019-06-15T05:38:26.384Z,1089.54
2019-06-15T05:39:26.410Z,1088.67
2019-06-15T05:40:26.428Z,1087.73
2019-06-15T05:41:26.426Z,1087
2019-06-15T05:42:26.430Z,1086.2
2019-06-15T05:43:26.427Z,1085.57
2019-06-15T05:44:26.406Z,1084.81
2019-06-15T05:45:26.388Z,1083.88
2019-06-15T05:46:26.427Z,1082.94
2019-06-15T05:47:26.411Z,1081.87
2019-06-15T05:48:26.561Z,1080.82
2019-06-15T05:49:26.463Z,1079.5
2019-06-15T05:50:26.430Z,1078.42
2019-06-15T05:51:26.419Z,1077.22
2019-06-15T05:52:26.427Z,1076.48
2019-06-15T05:53:26.437Z,1075.16
2019-06-15T05:54:26.423Z,1074.18
2019-06-15T05:55:26.428Z,1072.87
2019-06-15T05:56:26.408Z,1071.83
2019-06-15T05:57:26.414Z,1070.64
2019-06-15T05:58:26.418Z,1069.17
2019-06-15T05:59:26.417Z,1068.09
2019-06-15T06:00:26.452Z,1066.69
2019-06-15T06:01:26.440Z,1065.28
2019-06-15T06:02:26.424Z,1064.24
2019-06-15T06:03:26.437Z,1062.84
2019-06-15T06:04:26.437Z,1061.56
2019-06-15T06:05:26.819Z,1060
2019-06-15T06:06:26.429Z,1058.44
2019-06-15T06:07:26.440Z,1057.02
2019-06-15T06:08:26.449Z,1055.64
2019-06-15T06:09:26.433Z,1054.15
2019-06-15T06:10:26.489Z,1052.41
2019-06-15T06:11:26.448Z,1050.93
2019-06-15T06:12:26.498Z,1049.2
2019-06-15T06:13:26.469Z,1047.7
2019-06-15T06:14:26.465Z,1046.49
2019-06-15T06:15:26.963Z,1045.02
2019-06-15T06:16:26.475Z,1043.15
2019-06-15T06:17:26.456Z,1041.32
2019-06-15T06:18:26.465Z,1039.2
2019-06-15T06:19:26.454Z,1037.61
2019-06-15T06:20:26.480Z,1036.33
2019-06-15T06:21:26.462Z,1034.33
2019-06-15T06:22:26.451Z,1032.81
2019-06-15T06:23:26.499Z,1030.92
2019-06-15T06:24:26.481Z,1028.89
2019-06-15T06:25:26.483Z,1027.32
2019-06-15T06:26:26.482Z,1025.4
2019-06-15T06:27:36.026Z,1023.32
2019-06-15T06:28:26.494Z,1021.04
2019-06-15T06:29:26.500Z,1018.88
2019-06-15T06:30:29.515Z,1017.06
2019-06-15T06:31:26.534Z,1014.98
2019-06-15T06:32:26.508Z,1013.01
2019-06-15T06:33:26.497Z,1010.29
2019-06-15T06:34:26.488Z,1007.57
2019-06-15T06:35:26.523Z,1004.38
2019-06-15T06:36:26.513Z,1000.2
2019-06-15T06:37:26.505Z,995.37
2019-06-15T06:38:26.480Z,989.47
2019-06-15T06:39:26.499Z,983.39
2019-06-15T06:40:26.486Z,977.45
2019-06-15T06:41:26.497Z,970.36
2019-06-15T06:42:26.499Z,962.39
2019-06-15T06:43:26.535Z,954.73
2019-06-15T06:44:26.494Z,946.07
2019-06-15T06:45:26.665Z,937.33
2019-06-15T06:46:26.568Z,928.24
2019-06-15T06:47:26.520Z,919.74
2019-06-15T06:48:26.536Z,911.59
2019-06-15T06:49:26.498Z,903.45
2019-06-15T06:50:27.040Z,895.77
2019-06-15T06:51:27.189Z,887.34
2019-06-15T06:52:31.781Z,880.25
2019-06-15T06:53:26.522Z,874.04
2019-06-15T06:54:26.609Z,868.82
2019-06-15T06:55:26.524Z,865.55
2019-06-15T06:56:26.525Z,862.97
2019-06-15T06:57:27.078Z,860.25
2019-06-15T06:58:26.550Z,856.66
2019-06-15T06:59:26.562Z,853.73
2019-06-15T07:00:27.528Z,849.51
2019-06-15T07:01:26.540Z,845.33
2019-06-15T07:02:26.545Z,841.51
2019-06-15T07:03:26.532Z,839
2019-06-15T07:04:27.084Z,834.62
2019-06-15T07:05:26.560Z,830.73
2019-06-15T07:06:26.566Z,827.17
2019-06-15T07:07:26.550Z,823.69
2019-06-15T07:08:26.542Z,820.91
2019-06-15T07:09:26.612Z,817.78
2019-06-15T07:10:26.554Z,816.86
2019-06-15T07:11:26.564Z,813.6
2019-06-15T07:12:26.625Z,811.02
2019-06-15T07:13:26.549Z,806.21
2019-06-15T07:14:26.555Z,802.2
2019-06-15T07:15:26.567Z,796.88
2019-06-15T07:16:26.619Z,790.86
2019-06-15T07:17:26.571Z,784.85
2019-06-15T07:18:26.595Z,781.07
2019-06-15T07:19:26.572Z,777.65
2019-06-15T07:20:26.701Z,774.12
2019-06-15T07:21:26.616Z,772.12
2019-06-15T07:22:26.590Z,770.58
2019-06-15T07:23:26.574Z,766.89
2019-06-15T07:24:26.727Z,763.35
2019-06-15T07:25:26.592Z,761.52
2019-06-15T07:26:26.578Z,761.82
2019-06-15T07:27:26.646Z,764.61
2019-06-15T07:28:26.589Z,775.8
2019-06-15T07:29:26.596Z,776.89
2019-06-15T07:30:26.618Z,777.16
2019-06-15T07:31:26.757Z,779.24
2019-06-15T07:32:26.602Z,784.54
2019-06-15T07:33:26.599Z,783.53
2019-06-15T07:34:26.584Z,784.47
2019-06-15T07:35:26.713Z,784.64
2019-06-15T07:36:26.615Z,783.88
2019-06-15T07:37:26.603Z,782.82
2019-06-15T07:38:26.611Z,782.42
2019-06-15T07:39:26.636Z,784.39
2019-06-15T07:40:26.602Z,789.94
2019-06-15T07:41:26.662Z,793.7
2019-06-15T07:42:26.594Z,796.94
2019-06-15T07:43:26.607Z,800.76
2019-06-15T07:44:26.630Z,804.77
2019-06-15T07:45:26.622Z,807.83
2019-06-15T07:46:26.638Z,809.34
2019-06-15T07:47:26.652Z,810.83
2019-06-15T07:48:26.651Z,810.51
2019-06-15T07:49:26.640Z,812.87
2019-06-15T07:50:26.653Z,817.4
2019-06-15T07:51:26.639Z,821.73
2019-06-15T07:52:26.619Z,827.72
2019-06-15T07:53:26.627Z,830.29
2019-06-15T07:54:26.631Z,830.58
2019-06-15T07:55:26.623Z,832.63
2019-06-15T07:56:26.755Z,834.45
2019-06-15T07:57:26.648Z,836.92
2019-06-15T07:58:26.660Z,837.94
2019-06-15T07:59:26.660Z,838.85
2019-06-15T08:00:26.668Z,839.34
2019-06-15T08:01:26.652Z,839.16
2019-06-15T08:02:26.651Z,838.87
2019-06-15T08:06:55.050Z,825.13
2019-06-15T08:07:55.019Z,820.97
2019-06-15T08:08:55.024Z,823.48
2019-06-15T08:13:34.031Z,822.42
2019-06-15T08:14:33.806Z,814.29
2019-06-15T08:15:33.879Z,810.95
2019-06-15T08:16:33.810Z,813.76
2019-06-15T08:17:33.793Z,816.39
2019-06-15T08:18:33.809Z,827.92
2019-06-15T08:19:33.812Z,838.5
2019-06-15T08:20:33.836Z,844.29
2019-06-15T08:21:33.819Z,842.34
2019-06-15T08:22:33.793Z,840.16
2019-06-15T08:23:33.818Z,837.22
2019-06-15T08:24:33.801Z,836.48
2019-06-15T08:25:33.808Z,837.01
2019-06-15T08:26:33.799Z,836.87
2019-06-15T08:27:33.862Z,835.82
2019-06-15T08:28:40.120Z,834.43
2019-06-15T08:29:33.820Z,831.81
2019-06-15T08:30:34.186Z,828.6
2019-06-15T08:31:33.834Z,827.54
2019-06-15T08:32:33.874Z,825.39
2019-06-15T08:33:33.820Z,823.54
2019-06-15T08:34:33.832Z,820.97
2019-06-15T08:35:33.825Z,819.69
2019-06-15T08:36:33.844Z,818.84
2019-06-15T08:37:33.825Z,817.25
2019-06-15T08:38:33.862Z,816.71
2019-06-15T08:39:34.093Z,816.35
2019-06-15T08:40:33.845Z,814.15
2019-06-15T08:41:33.858Z,811.01
2019-06-15T08:42:33.839Z,808.76
2019-06-15T08:43:33.852Z,808.08
2019-06-15T08:44:33.839Z,809.51
2019-06-15T08:45:33.841Z,810.14
2019-06-15T08:46:33.847Z,810.63
2019-06-15T08:47:33.860Z,811.69
2019-06-15T08:48:33.883Z,812.18
2019-06-15T08:49:33.883Z,811.35
2019-06-15T08:50:33.862Z,810.21
2019-06-15T08:51:33.863Z,808.45
2019-06-15T08:52:33.852Z,807.37
2019-06-15T08:53:33.875Z,805.93
2019-06-15T08:54:33.907Z,805.07
2019-06-15T08:55:33.863Z,803.16
2019-06-15T08:56:33.890Z,802.33
2019-06-15T08:57:33.957Z,803.39
2019-06-15T08:58:33.866Z,806.32
2019-06-15T08:59:33.876Z,808.3
2019-06-15T09:00:33.877Z,809.5
2019-06-15T09:01:33.882Z,808.19
2019-06-15T09:02:33.873Z,807.9
2019-06-15T09:03:33.878Z,805.8
2019-06-15T09:04:33.884Z,802.25
2019-06-15T09:05:33.893Z,796.95
2019-06-15T09:06:33.898Z,791.89
2019-06-15T09:07:33.891Z,787.84
2019-06-15T09:08:33.912Z,784.85
2019-06-15T09:09:33.897Z,781.33
2019-06-15T09:10:33.913Z,777.97
2019-06-15T09:11:33.886Z,775.39
2019-06-15T09:12:33.923Z,773
2019-06-15T09:13:33.899Z,769.29
2019-06-15T09:14:33.912Z,767.4
2019-06-15T09:15:33.919Z,763.54
2019-06-15T09:16:33.921Z,762.33
2019-06-15T09:17:33.905Z,756.68
2019-06-15T09:18:33.933Z,751.13
2019-06-15T09:19:33.925Z,744.74
2019-06-15T09:20:33.949Z,739.84
2019-06-15T09:21:33.912Z,737.79
2019-06-15T09:22:33.920Z,737.5
2019-06-15T09:23:33.930Z,738.17
2019-06-15T09:24:33.914Z,739.07
2019-06-15T09:25:36.610Z,740.16
2019-06-15T09:26:33.924Z,740.23
2019-06-15T09:27:33.932Z,740.4
2019-06-15T09:28:33.942Z,740.26
2019-06-15T09:29:33.949Z,738.88
2019-06-15T09:30:33.933Z,737.83
2019-06-15T09:31:33.961Z,738.28
2019-06-15T09:32:33.944Z,737.41
2019-06-15T09:33:33.933Z,735.43
2019-06-15T09:34:33.986Z,732.97
2019-06-15T09:35:33.966Z,732.5
2019-06-15T09:36:33.971Z,732.02
2019-06-15T09:37:33.938Z,732.35
2019-06-15T09:38:33.966Z,730.14
2019-06-15T09:39:34.036Z,726.04
2019-06-15T09:40:33.962Z,720.48
2019-06-15T09:41:34.026Z,716.25
2019-06-15T09:42:34.075Z,711.98
2019-06-15T09:43:34.003Z,710.37
2019-06-15T09:44:33.979Z,707.48
2019-06-15T09:45:33.975Z,704.32
2019-06-15T09:46:33.982Z,704.38
2019-06-15T09:47:34.165Z,708.92
2019-06-15T09:48:34.185Z,708.94
2019-06-15T09:49:33.985Z,705.67
2019-06-15T09:50:34.074Z,704.31
2019-06-15T09:51:33.976Z,706.4
2019-06-15T09:52:34.292Z,708.58
2019-06-15T09:53:34.158Z,709.53
2019-06-15T09:54:33.989Z,712.41
2019-06-15T09:55:33.992Z,720.3
2019-06-15T09:56:33.998Z,726.92
2019-06-15T09:57:34.082Z,728.83
2019-06-15T09:58:33.977Z,728.82
2019-06-15T09:59:33.988Z,731.4
2019-06-15T10:00:33.987Z,731.77
2019-06-15T10:01:34.034Z,731.34
2019-06-15T10:02:34.042Z,728.55
2019-06-15T10:03:33.985Z,725.56
2019-06-15T10:04:34.004Z,722.9
2019-06-15T10:05:33.996Z,719.42
2019-06-15T10:06:34.026Z,717.2
2019-06-15T10:07:34.010Z,718.04
2019-06-15T10:08:34.045Z,723.06
2019-06-15T10:09:34.011Z,726.48
2019-06-15T10:10:34.018Z,727.59
2019-06-15T10:11:34.024Z,725.26
2019-06-15T10:12:34.043Z,721.03
2019-06-15T10:13:34.017Z,716.67
2019-06-15T10:14:34.023Z,712.78
2019-06-15T10:15:34.005Z,710.81
2019-06-15T10:16:34.038Z,711.87
2019-06-15T10:17:35.862Z,714.1
2019-06-15T10:18:34.064Z,713.73
2019-06-15T10:19:34.044Z,715.76
2019-06-15T10:20:34.045Z,717.68
2019-06-15T10:21:34.069Z,720.86
2019-06-15T10:22:34.035Z,721.92
2019-06-15T10:23:34.026Z,723.99
2019-06-15T10:24:34.046Z,726.53
2019-06-15T10:25:34.054Z,728.99
2019-06-15T10:26:34.039Z,731.15
2019-06-15T10:27:34.049Z,734.16
2019-06-15T10:28:34.035Z,736.65
2019-06-15T10:29:41.817Z,739.7
2019-06-15T10:30:34.065Z,743.24
2019-06-15T10:31:34.066Z,747.98
2019-06-15T10:32:34.039Z,762.31
2019-06-15T10:33:34.046Z,758.1
2019-06-15T10:34:34.051Z,757.95
2019-06-15T10:35:34.076Z,756.57
2019-06-15T10:36:34.351Z,759.06
2019-06-15T10:37:34.051Z,766.11
2019-06-15T10:38:34.061Z,762.34
2019-06-15T10:39:34.129Z,760.47
2019-06-15T10:40:34.051Z,757.39
2019-06-15T10:41:34.083Z,754.54
2019-06-15T10:42:34.063Z,754.77
2019-06-15T10:43:34.091Z,756.78
2019-06-15T10:44:34.080Z,761.53
2019-06-15T10:45:34.081Z,764.34
2019-06-15T10:46:34.327Z,779.69
2019-06-15T10:47:34.085Z,780.24
2019-06-15T10:48:34.091Z,778.67
2019-06-15T10:49:34.076Z,778.27
2019-06-15T10:50:34.089Z,779.45
2019-06-15T10:51:34.073Z,790.65
2019-06-15T10:52:34.084Z,798.17
2019-06-15T10:53:34.094Z,806.58
2019-06-15T10:54:34.087Z,808.63
2019-06-15T10:55:34.079Z,811.96
2019-06-15T10:56:34.082Z,811.66
2019-06-15T10:57:34.110Z,812.36
2019-06-15T10:58:34.094Z,815.9
2019-06-15T10:59:34.101Z,807.75
2019-06-15T11:00:34.442Z,811.24
2019-06-15T11:01:34.114Z,818.91
2019-06-15T11:02:34.104Z,825.15
2019-06-15T11:03:34.133Z,813.56
2019-06-15T11:04:34.117Z,803.22
2019-06-15T11:05:34.121Z,794.65
2019-06-15T11:06:34.537Z,790.42
2019-06-15T11:07:34.101Z,784.69
2019-06-15T11:08:34.124Z,787.4
2019-06-15T11:09:34.167Z,792.27
2019-06-15T11:10:34.119Z,781.58
2019-06-15T11:11:34.137Z,774.42
2019-06-15T11:12:45.664Z,778.99
2019-06-15T11:13:34.199Z,793.34
2019-06-15T11:14:34.180Z,800.92
2019-06-15T11:15:35.109Z,804.16
2019-06-15T11:16:34.135Z,814.16
2019-06-15T11:17:34.117Z,822.95
2019-06-15T11:18:34.121Z,828.48
2019-06-15T11:19:34.137Z,815.61
2019-06-15T11:20:34.146Z,804.37
2019-06-15T11:21:34.198Z,802.37
2019-06-15T11:22:34.148Z,809.1
2019-06-15T11:23:34.154Z,813.79
2019-06-15T11:24:34.150Z,818.09
2019-06-15T11:25:34.157Z,817.78
2019-06-15T11:26:34.143Z,824.12
2019-06-15T11:27:34.158Z,830.49
2019-06-15T11:28:34.171Z,836.01
2019-06-15T11:29:34.303Z,839.37
2019-06-15T11:30:34.168Z,843.03
2019-06-15T11:31:34.159Z,848.2
2019-06-15T11:32:34.163Z,854.5
2019-06-15T11:33:34.176Z,858.35
2019-06-15T11:34:34.151Z,849.74
2019-06-15T11:35:34.175Z,842.6
2019-06-15T11:36:34.185Z,848.42
2019-06-15T11:37:34.186Z,853.03
2019-06-15T11:38:34.171Z,861.94
2019-06-15T11:39:34.159Z,869.23
2019-06-15T11:40:34.171Z,874.76
2019-06-15T11:41:34.175Z,878.43
2019-06-15T11:42:34.167Z,878.28
2019-06-15T11:43:34.208Z,880.96
2019-06-15T11:44:34.184Z,883.64
2019-06-15T11:45:34.202Z,887.15
2019-06-15T11:46:38.872Z,889.58
2019-06-15T11:47:34.192Z,893.01
2019-06-15T11:48:34.304Z,894.61
2019-06-15T11:49:34.203Z,899.6
2019-06-15T11:50:34.184Z,904.12
2019-06-15T11:51:34.187Z,908.56
2019-06-15T11:52:34.194Z,913.68
2019-06-15T11:53:34.210Z,917.42
2019-06-15T11:54:34.246Z,920.82
2019-06-15T11:55:39.341Z,924.25
2019-06-15T11:56:34.230Z,924.15
2019-06-15T11:57:34.208Z,921.46
2019-06-15T11:58:34.199Z,916.31
2019-06-15T11:59:34.272Z,911.99
2019-06-15T12:00:34.204Z,911.33
2019-06-15T12:01:34.241Z,913.75
2019-06-15T12:02:34.201Z,916.84
2019-06-15T12:03:34.337Z,918.76
2019-06-15T12:04:34.219Z,921.14
2019-06-15T12:05:34.236Z,923.18
2019-06-15T12:06:34.306Z,923.46
2019-06-15T12:07:34.493Z,919.17
2019-06-15T12:08:34.235Z,912.01
2019-06-15T12:09:34.242Z,907.97
2019-06-15T12:10:34.231Z,907.36
2019-06-15T12:11:34.246Z,907.86
2019-06-15T12:16:02.451Z,911.44
2019-06-15T12:17:02.539Z,910.11
2019-06-15T12:18:02.401Z,910.85
2019-06-15T12:19:02.503Z,911.82
2019-06-15T12:20:02.479Z,913.08
2019-06-15T12:21:18.301Z,914.74
2019-06-15T12:22:18.338Z,916.6
2019-06-15T12:23:18.290Z,917.1
2019-06-15T12:24:18.433Z,916.51
2019-06-15T12:25:18.287Z,916.25
2019-06-15T12:26:18.326Z,916.66
2019-06-15T12:27:18.294Z,916.49
2019-06-15T12:28:18.323Z,918.28
2019-06-15T12:29:18.326Z,918.51
2019-06-15T12:30:18.316Z,919.42
2019-06-15T12:31:18.861Z,919.59
2019-06-15T12:32:18.362Z,919.27
2019-06-15T12:33:18.332Z,919.73
2019-06-15T12:34:20.945Z,920.53
2019-06-15T12:35:18.338Z,921.37
2019-06-15T12:36:19.559Z,922.29
2019-06-15T12:37:18.356Z,922.65
2019-06-15T12:38:18.328Z,924.34
2019-06-15T12:39:19.430Z,926.47
2019-06-15T12:40:18.446Z,927.71
2019-06-15T12:41:18.345Z,929